sensor_id;sensor_type;location;lat;lon;timestamp;P1;durP1;ratioP1;P2;durP2;ratioP2
32455;SDS011;18912;43.270;27.942;2024-02-15T00:02:02;6.23;;;2.67;;
32455;SDS011;18912;43.270;27.942;2024-02-15T00:04:27;5.53;;;2.77;;
32455;SDS011;18912;43.270;27.942;2024-02-15T00:06:53;5.88;;;2.85;;
32455;SDS011;18912;43.270;27.942;2024-02-15T00:09:19;8.70;;;3.30;;
32455;SDS011;18912;43.270;27.942;2024-02-15T00:11:44;4.57;;;2.70;;
32455;SDS011;18912;43.270;27.942;2024-02-15T00:14:10;5.67;;;3.20;;
32455;SDS011;18912;43.270;27.942;2024-02-15T00:16:37;6.72;;;3.15;;
32455;SDS011;18912;43.270;27.942;2024-02-15T00:19:02;15.00;;;3.50;;
32455;SDS011;18912;43.270;27.942;2024-02-15T00:21:27;6.17;;;2.90;;
32455;SDS011;18912;43.270;27.942;2024-02-15T00:23:53;4.53;;;2.83;;
32455;SDS011;18912;43.270;27.942;2024-02-15T00:26:21;5.13;;;3.00;;
32455;SDS011;18912;43.270;27.942;2024-02-15T00:28:46;4.60;;;2.80;;
32455;SDS011;18912;43.270;27.942;2024-02-15T00:31:13;5.95;;;3.10;;
32455;SDS011;18912;43.270;27.942;2024-02-15T00:33:38;7.47;;;2.63;;
32455;SDS011;18912;43.270;27.942;2024-02-15T00:36:04;5.93;;;2.80;;
32455;SDS011;18912;43.270;27.942;2024-02-15T00:38:31;6.28;;;3.05;;
32455;SDS011;18912;43.270;27.942;2024-02-15T00:40:57;8.52;;;3.45;;
32455;SDS011;18912;43.270;27.942;2024-02-15T00:43:24;7.93;;;3.08;;
32455;SDS011;18912;43.270;27.942;2024-02-15T00:45:51;6.72;;;3.38;;
32455;SDS011;18912;43.270;27.942;2024-02-15T00:48:17;5.37;;;2.77;;
32455;SDS011;18912;43.270;27.942;2024-02-15T00:50:42;6.70;;;3.00;;
32455;SDS011;18912;43.270;27.942;2024-02-15T00:53:08;5.27;;;2.57;;
32455;SDS011;18912;43.270;27.942;2024-02-15T00:55:33;8.83;;;3.20;;
32455;SDS011;18912;43.270;27.942;2024-02-15T00:57:58;7.83;;;3.13;;
32455;SDS011;18912;43.270;27.942;2024-02-15T01:00:24;5.00;;;2.83;;
32455;SDS011;18912;43.270;27.942;2024-02-15T01:05:17;4.17;;;2.13;;
32455;SDS011;18912;43.270;27.942;2024-02-15T01:07:43;6.72;;;3.45;;
32455;SDS011;18912;43.270;27.942;2024-02-15T01:10:09;9.55;;;3.30;;
32455;SDS011;18912;43.270;27.942;2024-02-15T01:12:35;6.38;;;3.17;;
32455;SDS011;18912;43.270;27.942;2024-02-15T01:15:01;7.60;;;3.40;;
32455;SDS011;18912;43.270;27.942;2024-02-15T01:17:26;8.85;;;3.53;;
32455;SDS011;18912;43.270;27.942;2024-02-15T01:19:52;6.27;;;3.40;;
32455;SDS011;18912;43.270;27.942;2024-02-15T01:22:18;6.82;;;3.28;;
32455;SDS011;18912;43.270;27.942;2024-02-15T01:24:45;8.60;;;3.60;;
32455;SDS011;18912;43.270;27.942;2024-02-15T01:27:11;5.70;;;3.03;;
32455;SDS011;18912;43.270;27.942;2024-02-15T01:29:37;6.17;;;3.57;;
32455;SDS011;18912;43.270;27.942;2024-02-15T01:32:02;6.60;;;3.43;;
32455;SDS011;18912;43.270;27.942;2024-02-15T01:34:28;6.72;;;3.33;;
32455;SDS011;18912;43.270;27.942;2024-02-15T01:36:54;10.27;;;4.00;;
32455;SDS011;18912;43.270;27.942;2024-02-15T01:39:20;7.40;;;3.22;;
32455;SDS011;18912;43.270;27.942;2024-02-15T01:41:48;8.00;;;3.30;;
32455;SDS011;18912;43.270;27.942;2024-02-15T01:44:21;6.53;;;3.65;;
32455;SDS011;18912;43.270;27.942;2024-02-15T01:46:49;7.47;;;3.67;;
32455;SDS011;18912;43.270;27.942;2024-02-15T01:49:18;7.65;;;3.22;;
32455;SDS011;18912;43.270;27.942;2024-02-15T01:51:47;5.60;;;3.58;;
32455;SDS011;18912;43.270;27.942;2024-02-15T01:54:14;6.03;;;3.70;;
32455;SDS011;18912;43.270;27.942;2024-02-15T01:56:43;6.75;;;3.70;;
32455;SDS011;18912;43.270;27.942;2024-02-15T01:59:09;8.65;;;3.75;;
32455;SDS011;18912;43.270;27.942;2024-02-15T02:01:37;9.23;;;3.30;;
32455;SDS011;18912;43.270;27.942;2024-02-15T02:06:30;8.40;;;3.50;;
32455;SDS011;18912;43.270;27.942;2024-02-15T02:11:22;8.57;;;3.58;;
32455;SDS011;18912;43.270;27.942;2024-02-15T02:13:48;6.22;;;3.92;;
32455;SDS011;18912;43.270;27.942;2024-02-15T02:16:30;6.00;;;3.67;;
32455;SDS011;18912;43.270;27.942;2024-02-15T02:19:00;8.68;;;3.90;;
32455;SDS011;18912;43.270;27.942;2024-02-15T02:21:27;6.68;;;3.53;;
32455;SDS011;18912;43.270;27.942;2024-02-15T02:23:56;6.15;;;4.10;;
32455;SDS011;18912;43.270;27.942;2024-02-15T02:26:23;11.63;;;3.65;;
32455;SDS011;18912;43.270;27.942;2024-02-15T02:28:49;6.28;;;3.30;;
32455;SDS011;18912;43.270;27.942;2024-02-15T02:31:18;8.90;;;3.65;;
32455;SDS011;18912;43.270;27.942;2024-02-15T02:33:48;6.22;;;3.47;;
32455;SDS011;18912;43.270;27.942;2024-02-15T02:36:19;6.93;;;3.58;;
32455;SDS011;18912;43.270;27.942;2024-02-15T02:38:45;7.93;;;3.55;;
32455;SDS011;18912;43.270;27.942;2024-02-15T02:41:15;7.35;;;3.55;;
32455;SDS011;18912;43.270;27.942;2024-02-15T02:43:41;8.65;;;3.63;;
32455;SDS011;18912;43.270;27.942;2024-02-15T02:46:06;8.75;;;3.78;;
32455;SDS011;18912;43.270;27.942;2024-02-15T02:48:36;8.75;;;4.25;;
32455;SDS011;18912;43.270;27.942;2024-02-15T02:51:02;7.78;;;3.70;;
32455;SDS011;18912;43.270;27.942;2024-02-15T02:53:28;9.73;;;4.00;;
32455;SDS011;18912;43.270;27.942;2024-02-15T02:55:55;6.77;;;3.57;;
32455;SDS011;18912;43.270;27.942;2024-02-15T02:58:22;6.65;;;3.47;;
32455;SDS011;18912;43.270;27.942;2024-02-15T03:00:48;8.45;;;4.00;;
32455;SDS011;18912;43.270;27.942;2024-02-15T03:05:40;9.98;;;3.83;;
32455;SDS011;18912;43.270;27.942;2024-02-15T03:08:08;5.35;;;3.30;;
32455;SDS011;18912;43.270;27.942;2024-02-15T03:10:34;5.30;;;3.20;;
32455;SDS011;18912;43.270;27.942;2024-02-15T03:13:00;5.72;;;3.15;;
32455;SDS011;18912;43.270;27.942;2024-02-15T03:15:25;7.07;;;3.40;;
32455;SDS011;18912;43.270;27.942;2024-02-15T03:17:51;8.47;;;3.80;;
32455;SDS011;18912;43.270;27.942;2024-02-15T03:20:17;5.57;;;3.40;;
32455;SDS011;18912;43.270;27.942;2024-02-15T03:22:55;8.07;;;3.25;;
32455;SDS011;18912;43.270;27.942;2024-02-15T03:25:23;5.85;;;3.55;;
32455;SDS011;18912;43.270;27.942;2024-02-15T03:27:50;6.07;;;3.53;;
32455;SDS011;18912;43.270;27.942;2024-02-15T03:30:20;7.95;;;4.03;;
32455;SDS011;18912;43.270;27.942;2024-02-15T03:32:46;6.90;;;3.85;;
32455;SDS011;18912;43.270;27.942;2024-02-15T03:35:16;7.15;;;3.20;;
32455;SDS011;18912;43.270;27.942;2024-02-15T03:37:43;7.25;;;3.65;;
32455;SDS011;18912;43.270;27.942;2024-02-15T03:40:09;6.13;;;3.40;;
32455;SDS011;18912;43.270;27.942;2024-02-15T03:42:35;5.85;;;3.53;;
32455;SDS011;18912;43.270;27.942;2024-02-15T03:45:05;6.78;;;3.53;;
32455;SDS011;18912;43.270;27.942;2024-02-15T03:47:34;6.78;;;3.40;;
32455;SDS011;18912;43.270;27.942;2024-02-15T03:50:02;7.85;;;3.25;;
32455;SDS011;18912;43.270;27.942;2024-02-15T03:52:30;9.77;;;3.47;;
32455;SDS011;18912;43.270;27.942;2024-02-15T03:54:56;5.97;;;3.25;;
32455;SDS011;18912;43.270;27.942;2024-02-15T03:57:23;6.40;;;3.38;;
32455;SDS011;18912;43.270;27.942;2024-02-15T03:59:49;8.00;;;3.50;;
32455;SDS011;18912;43.270;27.942;2024-02-15T04:02:19;6.07;;;2.90;;
32455;SDS011;18912;43.270;27.942;2024-02-15T04:07:18;7.60;;;2.90;;
32455;SDS011;18912;43.270;27.942;2024-02-15T04:09:44;7.07;;;3.13;;
32455;SDS011;18912;43.270;27.942;2024-02-15T04:12:10;10.23;;;3.28;;
32455;SDS011;18912;43.270;27.942;2024-02-15T04:14:37;10.27;;;3.78;;
32455;SDS011;18912;43.270;27.942;2024-02-15T04:17:06;5.20;;;3.30;;
32455;SDS011;18912;43.270;27.942;2024-02-15T04:19:32;5.93;;;3.38;;
32455;SDS011;18912;43.270;27.942;2024-02-15T04:21:58;4.82;;;2.75;;
32455;SDS011;18912;43.270;27.942;2024-02-15T04:24:28;7.50;;;2.85;;
32455;SDS011;18912;43.270;27.942;2024-02-15T04:26:54;7.95;;;3.85;;
32455;SDS011;18912;43.270;27.942;2024-02-15T04:29:20;5.17;;;2.90;;
32455;SDS011;18912;43.270;27.942;2024-02-15T04:31:46;4.90;;;3.00;;
32455;SDS011;18912;43.270;27.942;2024-02-15T04:34:17;6.63;;;3.42;;
32455;SDS011;18912;43.270;27.942;2024-02-15T04:36:47;8.02;;;4.35;;
32455;SDS011;18912;43.270;27.942;2024-02-15T04:39:19;6.05;;;3.38;;
32455;SDS011;18912;43.270;27.942;2024-02-15T04:41:53;7.88;;;3.35;;
32455;SDS011;18912;43.270;27.942;2024-02-15T04:44:20;6.65;;;2.97;;
32455;SDS011;18912;43.270;27.942;2024-02-15T04:46:46;8.90;;;3.17;;
32455;SDS011;18912;43.270;27.942;2024-02-15T04:49:13;9.07;;;3.08;;
32455;SDS011;18912;43.270;27.942;2024-02-15T04:51:39;6.00;;;3.33;;
32455;SDS011;18912;43.270;27.942;2024-02-15T04:54:06;6.68;;;3.40;;
32455;SDS011;18912;43.270;27.942;2024-02-15T04:56:33;5.10;;;3.03;;
32455;SDS011;18912;43.270;27.942;2024-02-15T04:59:01;6.65;;;3.45;;
32455;SDS011;18912;43.270;27.942;2024-02-15T05:01:28;5.28;;;3.10;;
32455;SDS011;18912;43.270;27.942;2024-02-15T05:03:58;6.85;;;3.33;;
32455;SDS011;18912;43.270;27.942;2024-02-15T05:06:23;5.83;;;2.80;;
32455;SDS011;18912;43.270;27.942;2024-02-15T05:08:51;9.00;;;3.65;;
32455;SDS011;18912;43.270;27.942;2024-02-15T05:11:16;7.37;;;3.70;;
32455;SDS011;18912;43.270;27.942;2024-02-15T05:13:47;7.57;;;3.47;;
32455;SDS011;18912;43.270;27.942;2024-02-15T05:16:16;7.85;;;3.17;;
32455;SDS011;18912;43.270;27.942;2024-02-15T05:18:42;9.13;;;3.53;;
32455;SDS011;18912;43.270;27.942;2024-02-15T05:21:08;11.80;;;3.50;;
32455;SDS011;18912;43.270;27.942;2024-02-15T05:23:37;10.30;;;2.95;;
32455;SDS011;18912;43.270;27.942;2024-02-15T05:26:05;5.00;;;2.95;;
32455;SDS011;18912;43.270;27.942;2024-02-15T05:33:39;8.25;;;3.45;;
32455;SDS011;18912;43.270;27.942;2024-02-15T05:36:10;7.63;;;4.40;;
32455;SDS011;18912;43.270;27.942;2024-02-15T05:38:38;6.88;;;3.30;;
32455;SDS011;18912;43.270;27.942;2024-02-15T05:41:04;7.75;;;3.30;;
32455;SDS011;18912;43.270;27.942;2024-02-15T05:43:31;7.20;;;3.53;;
32455;SDS011;18912;43.270;27.942;2024-02-15T05:45:57;7.35;;;3.22;;
32455;SDS011;18912;43.270;27.942;2024-02-15T05:48:24;11.50;;;4.03;;
32455;SDS011;18912;43.270;27.942;2024-02-15T05:50:49;14.63;;;3.90;;
32455;SDS011;18912;43.270;27.942;2024-02-15T05:53:15;5.50;;;3.10;;
32455;SDS011;18912;43.270;27.942;2024-02-15T05:55:41;8.20;;;4.10;;
32455;SDS011;18912;43.270;27.942;2024-02-15T05:58:09;6.28;;;3.33;;
32455;SDS011;18912;43.270;27.942;2024-02-15T06:00:37;6.65;;;3.05;;
32455;SDS011;18912;43.270;27.942;2024-02-15T06:03:04;7.53;;;3.50;;
32455;SDS011;18912;43.270;27.942;2024-02-15T06:05:31;7.45;;;3.53;;
32455;SDS011;18912;43.270;27.942;2024-02-15T06:10:24;8.93;;;3.83;;
32455;SDS011;18912;43.270;27.942;2024-02-15T06:12:50;9.32;;;3.63;;
32455;SDS011;18912;43.270;27.942;2024-02-15T06:15:16;7.22;;;3.60;;
32455;SDS011;18912;43.270;27.942;2024-02-15T06:17:46;7.53;;;3.78;;
32455;SDS011;18912;43.270;27.942;2024-02-15T06:20:15;7.32;;;3.78;;
32455;SDS011;18912;43.270;27.942;2024-02-15T06:22:43;14.25;;;3.72;;
32455;SDS011;18912;43.270;27.942;2024-02-15T06:25:09;6.05;;;3.65;;
32455;SDS011;18912;43.270;27.942;2024-02-15T06:27:36;8.32;;;3.92;;
32455;SDS011;18912;43.270;27.942;2024-02-15T06:30:06;10.35;;;3.53;;
32455;SDS011;18912;43.270;27.942;2024-02-15T06:32:52;7.07;;;3.40;;
32455;SDS011;18912;43.270;27.942;2024-02-15T06:35:36;8.50;;;3.78;;
32455;SDS011;18912;43.270;27.942;2024-02-15T06:38:20;9.77;;;3.22;;
32455;SDS011;18912;43.270;27.942;2024-02-15T06:41:05;9.13;;;3.80;;
32455;SDS011;18912;43.270;27.942;2024-02-15T06:43:30;9.00;;;4.00;;
32455;SDS011;18912;43.270;27.942;2024-02-15T06:45:56;8.60;;;4.15;;
32455;SDS011;18912;43.270;27.942;2024-02-15T06:48:23;8.60;;;4.05;;
32455;SDS011;18912;43.270;27.942;2024-02-15T06:50:51;9.10;;;3.78;;
32455;SDS011;18912;43.270;27.942;2024-02-15T06:53:16;8.47;;;3.80;;
32455;SDS011;18912;43.270;27.942;2024-02-15T06:55:42;9.20;;;3.80;;
32455;SDS011;18912;43.270;27.942;2024-02-15T06:58:10;10.45;;;3.63;;
32455;SDS011;18912;43.270;27.942;2024-02-15T07:00:37;8.77;;;4.32;;
32455;SDS011;18912;43.270;27.942;2024-02-15T07:03:05;8.07;;;3.60;;
32455;SDS011;18912;43.270;27.942;2024-02-15T07:05:32;8.30;;;4.05;;
32455;SDS011;18912;43.270;27.942;2024-02-15T07:07:58;8.63;;;4.07;;
32455;SDS011;18912;43.270;27.942;2024-02-15T07:10:24;9.45;;;4.05;;
32455;SDS011;18912;43.270;27.942;2024-02-15T07:12:50;10.23;;;5.10;;
32455;SDS011;18912;43.270;27.942;2024-02-15T07:15:16;7.18;;;3.67;;
32455;SDS011;18912;43.270;27.942;2024-02-15T07:17:42;7.75;;;3.78;;
32455;SDS011;18912;43.270;27.942;2024-02-15T07:20:10;7.72;;;4.40;;
32455;SDS011;18912;43.270;27.942;2024-02-15T07:22:39;7.22;;;3.90;;
32455;SDS011;18912;43.270;27.942;2024-02-15T07:25:04;10.80;;;4.57;;
32455;SDS011;18912;43.270;27.942;2024-02-15T07:27:30;11.32;;;4.15;;
32455;SDS011;18912;43.270;27.942;2024-02-15T07:29:58;9.82;;;4.43;;
32455;SDS011;18912;43.270;27.942;2024-02-15T07:32:23;9.53;;;4.67;;
32455;SDS011;18912;43.270;27.942;2024-02-15T07:34:49;9.60;;;4.83;;
32455;SDS011;18912;43.270;27.942;2024-02-15T07:37:15;14.02;;;4.18;;
32455;SDS011;18912;43.270;27.942;2024-02-15T07:39:41;12.60;;;4.28;;
32455;SDS011;18912;43.270;27.942;2024-02-15T07:42:07;9.85;;;4.00;;
32455;SDS011;18912;43.270;27.942;2024-02-15T07:44:37;8.57;;;4.45;;
32455;SDS011;18912;43.270;27.942;2024-02-15T07:47:03;10.17;;;4.13;;
32455;SDS011;18912;43.270;27.942;2024-02-15T07:49:31;8.80;;;3.72;;
32455;SDS011;18912;43.270;27.942;2024-02-15T07:51:57;9.55;;;4.07;;
32455;SDS011;18912;43.270;27.942;2024-02-15T07:54:24;5.47;;;3.22;;
32455;SDS011;18912;43.270;27.942;2024-02-15T07:56:50;7.90;;;3.67;;
32455;SDS011;18912;43.270;27.942;2024-02-15T07:59:15;11.33;;;4.40;;
32455;SDS011;18912;43.270;27.942;2024-02-15T08:01:44;8.23;;;3.90;;
32455;SDS011;18912;43.270;27.942;2024-02-15T08:04:15;6.72;;;3.80;;
32455;SDS011;18912;43.270;27.942;2024-02-15T08:06:42;7.95;;;4.05;;
32455;SDS011;18912;43.270;27.942;2024-02-15T08:09:08;11.00;;;4.00;;
32455;SDS011;18912;43.270;27.942;2024-02-15T08:11:39;8.10;;;3.72;;
32455;SDS011;18912;43.270;27.942;2024-02-15T08:14:05;7.75;;;3.80;;
32455;SDS011;18912;43.270;27.942;2024-02-15T08:16:35;8.48;;;4.35;;
32455;SDS011;18912;43.270;27.942;2024-02-15T08:19:01;13.32;;;4.00;;
32455;SDS011;18912;43.270;27.942;2024-02-15T08:21:28;10.68;;;3.72;;
32455;SDS011;18912;43.270;27.942;2024-02-15T08:23:58;11.18;;;4.10;;
32455;SDS011;18912;43.270;27.942;2024-02-15T08:26:24;6.85;;;3.58;;
32455;SDS011;18912;43.270;27.942;2024-02-15T08:28:49;12.10;;;4.57;;
32455;SDS011;18912;43.270;27.942;2024-02-15T08:31:15;9.87;;;3.87;;
32455;SDS011;18912;43.270;27.942;2024-02-15T08:33:41;9.65;;;4.38;;
32455;SDS011;18912;43.270;27.942;2024-02-15T08:36:08;7.05;;;3.95;;
32455;SDS011;18912;43.270;27.942;2024-02-15T08:38:36;10.05;;;4.13;;
32455;SDS011;18912;43.270;27.942;2024-02-15T08:41:02;12.80;;;4.13;;
32455;SDS011;18912;43.270;27.942;2024-02-15T08:43:32;6.82;;;3.90;;
32455;SDS011;18912;43.270;27.942;2024-02-15T08:45:58;6.00;;;3.30;;
32455;SDS011;18912;43.270;27.942;2024-02-15T08:48:24;9.48;;;3.70;;
32455;SDS011;18912;43.270;27.942;2024-02-15T08:50:50;8.30;;;3.17;;
32455;SDS011;18912;43.270;27.942;2024-02-15T08:53:16;7.47;;;4.53;;
32455;SDS011;18912;43.270;27.942;2024-02-15T08:55:44;12.90;;;3.60;;
32455;SDS011;18912;43.270;27.942;2024-02-15T08:58:10;9.00;;;3.25;;
32455;SDS011;18912;43.270;27.942;2024-02-15T09:00:36;5.33;;;2.83;;
32455;SDS011;18912;43.270;27.942;2024-02-15T09:03:06;7.72;;;2.78;;
32455;SDS011;18912;43.270;27.942;2024-02-15T09:05:32;7.10;;;3.05;;
32455;SDS011;18912;43.270;27.942;2024-02-15T09:07:58;5.20;;;3.23;;
32455;SDS011;18912;43.270;27.942;2024-02-15T09:10:23;7.18;;;3.60;;
32455;SDS011;18912;43.270;27.942;2024-02-15T09:12:49;6.50;;;2.93;;
32455;SDS011;18912;43.270;27.942;2024-02-15T09:15:15;7.83;;;3.40;;
32455;SDS011;18912;43.270;27.942;2024-02-15T09:17:42;6.90;;;3.42;;
32455;SDS011;18912;43.270;27.942;2024-02-15T09:20:10;6.57;;;3.03;;
32455;SDS011;18912;43.270;27.942;2024-02-15T09:22:52;8.07;;;2.97;;
32455;SDS011;18912;43.270;27.942;2024-02-15T09:25:19;8.55;;;3.45;;
32455;SDS011;18912;43.270;27.942;2024-02-15T09:27:49;6.70;;;3.08;;
32455;SDS011;18912;43.270;27.942;2024-02-15T09:32:41;8.27;;;3.00;;
32455;SDS011;18912;43.270;27.942;2024-02-15T09:35:12;5.95;;;3.08;;
32455;SDS011;18912;43.270;27.942;2024-02-15T09:37:38;4.80;;;2.60;;
32455;SDS011;18912;43.270;27.942;2024-02-15T09:40:13;5.13;;;2.20;;
32455;SDS011;18912;43.270;27.942;2024-02-15T09:42:41;6.90;;;3.72;;
32455;SDS011;18912;43.270;27.942;2024-02-15T09:45:10;8.00;;;2.72;;
32455;SDS011;18912;43.270;27.942;2024-02-15T09:47:41;8.55;;;4.18;;
32455;SDS011;18912;43.270;27.942;2024-02-15T09:52:39;9.90;;;3.05;;
32455;SDS011;18912;43.270;27.942;2024-02-15T09:55:06;5.35;;;3.30;;
32455;SDS011;18912;43.270;27.942;2024-02-15T09:57:38;5.70;;;3.00;;
32455;SDS011;18912;43.270;27.942;2024-02-15T10:00:04;9.48;;;3.88;;
32455;SDS011;18912;43.270;27.942;2024-02-15T10:02:32;5.50;;;3.10;;
32455;SDS011;18912;43.270;27.942;2024-02-15T10:05:01;5.43;;;3.13;;
32455;SDS011;18912;43.270;27.942;2024-02-15T10:07:27;16.65;;;3.13;;
32455;SDS011;18912;43.270;27.942;2024-02-15T10:09:53;4.73;;;3.30;;
32455;SDS011;18912;43.270;27.942;2024-02-15T10:12:19;6.70;;;3.28;;
32455;SDS011;18912;43.270;27.942;2024-02-15T10:14:52;5.43;;;2.90;;
32455;SDS011;18912;43.270;27.942;2024-02-15T10:17:18;4.93;;;2.60;;
32455;SDS011;18912;43.270;27.942;2024-02-15T10:19:45;9.07;;;3.60;;
32455;SDS011;18912;43.270;27.942;2024-02-15T10:22:27;6.55;;;2.92;;
32455;SDS011;18912;43.270;27.942;2024-02-15T10:24:53;6.87;;;3.43;;
32455;SDS011;18912;43.270;27.942;2024-02-15T10:27:36;6.10;;;3.35;;
32455;SDS011;18912;43.270;27.942;2024-02-15T10:30:16;8.85;;;3.33;;
32455;SDS011;18912;43.270;27.942;2024-02-15T10:32:43;10.02;;;3.88;;
32455;SDS011;18912;43.270;27.942;2024-02-15T10:35:10;5.22;;;3.03;;
32455;SDS011;18912;43.270;27.942;2024-02-15T10:37:41;6.25;;;3.00;;
32455;SDS011;18912;43.270;27.942;2024-02-15T10:40:07;5.95;;;2.85;;
32455;SDS011;18912;43.270;27.942;2024-02-15T10:45:04;6.53;;;3.00;;
32455;SDS011;18912;43.270;27.942;2024-02-15T10:47:35;4.63;;;2.60;;
32455;SDS011;18912;43.270;27.942;2024-02-15T10:50:03;5.82;;;2.60;;
32455;SDS011;18912;43.270;27.942;2024-02-15T10:52:31;6.30;;;2.88;;
32455;SDS011;18912;43.270;27.942;2024-02-15T10:55:04;4.80;;;3.03;;
32455;SDS011;18912;43.270;27.942;2024-02-15T10:57:34;6.03;;;2.57;;
32455;SDS011;18912;43.270;27.942;2024-02-15T11:00:04;5.93;;;2.88;;
32455;SDS011;18912;43.270;27.942;2024-02-15T11:02:38;10.40;;;2.88;;
32455;SDS011;18912;43.270;27.942;2024-02-15T11:05:13;6.13;;;2.75;;
32455;SDS011;18912;43.270;27.942;2024-02-15T11:07:46;5.82;;;2.75;;
32455;SDS011;18912;43.270;27.942;2024-02-15T11:10:11;7.17;;;3.43;;
32455;SDS011;18912;43.270;27.942;2024-02-15T11:12:42;6.50;;;3.00;;
32455;SDS011;18912;43.270;27.942;2024-02-15T11:20:05;6.68;;;3.17;;
32455;SDS011;18912;43.270;27.942;2024-02-15T11:22:39;4.95;;;2.67;;
32455;SDS011;18912;43.270;27.942;2024-02-15T11:25:05;11.53;;;3.33;;
32455;SDS011;18912;43.270;27.942;2024-02-15T11:27:36;7.60;;;3.33;;
32455;SDS011;18912;43.270;27.942;2024-02-15T11:30:04;5.57;;;2.80;;
32455;SDS011;18912;43.270;27.942;2024-02-15T11:32:38;4.20;;;2.70;;
32455;SDS011;18912;43.270;27.942;2024-02-15T11:40:16;5.47;;;2.67;;
32455;SDS011;18912;43.270;27.942;2024-02-15T11:42:46;5.70;;;3.00;;
32455;SDS011;18912;43.270;27.942;2024-02-15T11:45:12;6.43;;;3.28;;
32455;SDS011;18912;43.270;27.942;2024-02-15T11:47:40;5.47;;;2.75;;
32455;SDS011;18912;43.270;27.942;2024-02-15T11:50:13;11.57;;;2.90;;
32455;SDS011;18912;43.270;27.942;2024-02-15T11:52:46;5.43;;;2.80;;
32455;SDS011;18912;43.270;27.942;2024-02-15T11:55:14;5.00;;;3.25;;
32455;SDS011;18912;43.270;27.942;2024-02-15T11:58:05;6.82;;;2.50;;
32455;SDS011;18912;43.270;27.942;2024-02-15T12:00:43;12.00;;;3.08;;
32455;SDS011;18912;43.270;27.942;2024-02-15T12:03:27;9.88;;;3.55;;
32455;SDS011;18912;43.270;27.942;2024-02-15T12:06:11;7.75;;;3.40;;
32455;SDS011;18912;43.270;27.942;2024-02-15T12:09:00;6.90;;;2.90;;
32455;SDS011;18912;43.270;27.942;2024-02-15T12:11:44;5.32;;;3.03;;
32455;SDS011;18912;43.270;27.942;2024-02-15T12:14:28;11.48;;;2.55;;
32455;SDS011;18912;43.270;27.942;2024-02-15T12:17:12;7.38;;;2.85;;
32455;SDS011;18912;43.270;27.942;2024-02-15T12:19:59;9.25;;;3.65;;
32455;SDS011;18912;43.270;27.942;2024-02-15T12:22:26;8.85;;;3.88;;
32455;SDS011;18912;43.270;27.942;2024-02-15T12:24:57;6.47;;;3.22;;
32455;SDS011;18912;43.270;27.942;2024-02-15T12:27:26;8.88;;;3.53;;
32455;SDS011;18912;43.270;27.942;2024-02-15T12:29:55;9.30;;;3.15;;
32455;SDS011;18912;43.270;27.942;2024-02-15T12:32:23;4.45;;;2.70;;
32455;SDS011;18912;43.270;27.942;2024-02-15T12:34:52;10.15;;;2.80;;
32455;SDS011;18912;43.270;27.942;2024-02-15T12:37:22;6.97;;;2.78;;
32455;SDS011;18912;43.270;27.942;2024-02-15T12:39:49;5.10;;;2.78;;
32455;SDS011;18912;43.270;27.942;2024-02-15T12:42:15;12.13;;;2.58;;
32455;SDS011;18912;43.270;27.942;2024-02-15T12:44:48;6.35;;;2.13;;
32455;SDS011;18912;43.270;27.942;2024-02-15T12:47:20;7.47;;;2.92;;
32455;SDS011;18912;43.270;27.942;2024-02-15T12:49:47;6.47;;;2.60;;
32455;SDS011;18912;43.270;27.942;2024-02-15T12:55:08;3.85;;;2.13;;
32455;SDS011;18912;43.270;27.942;2024-02-15T12:57:46;4.43;;;2.30;;
32455;SDS011;18912;43.270;27.942;2024-02-15T13:00:17;4.82;;;2.40;;
32455;SDS011;18912;43.270;27.942;2024-02-15T13:02:50;4.82;;;2.35;;
32455;SDS011;18912;43.270;27.942;2024-02-15T13:05:17;7.18;;;2.58;;
32455;SDS011;18912;43.270;27.942;2024-02-15T13:07:47;4.88;;;2.50;;
32455;SDS011;18912;43.270;27.942;2024-02-15T13:10:13;6.47;;;2.10;;
32455;SDS011;18912;43.270;27.942;2024-02-15T13:15:06;8.38;;;2.70;;
32455;SDS011;18912;43.270;27.942;2024-02-15T13:17:36;7.95;;;2.90;;
32455;SDS011;18912;43.270;27.942;2024-02-15T13:20:03;6.05;;;2.63;;
32455;SDS011;18912;43.270;27.942;2024-02-15T13:22:30;6.75;;;2.50;;
32455;SDS011;18912;43.270;27.942;2024-02-15T13:24:57;6.13;;;2.13;;
32455;SDS011;18912;43.270;27.942;2024-02-15T13:27:23;6.40;;;2.33;;
32455;SDS011;18912;43.270;27.942;2024-02-15T13:29:49;6.95;;;2.38;;
32455;SDS011;18912;43.270;27.942;2024-02-15T13:32:15;5.18;;;2.55;;
32455;SDS011;18912;43.270;27.942;2024-02-15T13:34:45;7.43;;;2.80;;
32455;SDS011;18912;43.270;27.942;2024-02-15T13:37:10;5.32;;;2.38;;
32455;SDS011;18912;43.270;27.942;2024-02-15T13:39:39;10.70;;;2.95;;
32455;SDS011;18912;43.270;27.942;2024-02-15T13:42:08;6.10;;;3.20;;
32455;SDS011;18912;43.270;27.942;2024-02-15T13:44:34;9.50;;;2.60;;
32455;SDS011;18912;43.270;27.942;2024-02-15T13:46:59;6.20;;;2.47;;
32455;SDS011;18912;43.270;27.942;2024-02-15T13:49:25;4.10;;;2.20;;
32455;SDS011;18912;43.270;27.942;2024-02-15T13:51:51;7.50;;;3.33;;
32455;SDS011;18912;43.270;27.942;2024-02-15T13:54:17;9.37;;;2.90;;
32455;SDS011;18912;43.270;27.942;2024-02-15T13:56:43;6.63;;;2.63;;
32455;SDS011;18912;43.270;27.942;2024-02-15T13:59:09;7.53;;;3.13;;
32455;SDS011;18912;43.270;27.942;2024-02-15T14:01:35;6.63;;;2.00;;
32455;SDS011;18912;43.270;27.942;2024-02-15T14:04:08;4.72;;;3.05;;
32455;SDS011;18912;43.270;27.942;2024-02-15T14:06:34;6.22;;;2.80;;
32455;SDS011;18912;43.270;27.942;2024-02-15T14:09:02;10.23;;;2.80;;
32455;SDS011;18912;43.270;27.942;2024-02-15T14:11:28;7.63;;;2.60;;
32455;SDS011;18912;43.270;27.942;2024-02-15T14:13:54;5.93;;;2.77;;
32455;SDS011;18912;43.270;27.942;2024-02-15T14:16:23;8.15;;;2.90;;
32455;SDS011;18912;43.270;27.942;2024-02-15T14:18:49;9.95;;;3.08;;
32455;SDS011;18912;43.270;27.942;2024-02-15T14:21:16;7.05;;;2.75;;
32455;SDS011;18912;43.270;27.942;2024-02-15T14:23:44;9.07;;;2.70;;
32455;SDS011;18912;43.270;27.942;2024-02-15T14:26:10;8.07;;;2.70;;
32455;SDS011;18912;43.270;27.942;2024-02-15T14:28:35;8.05;;;3.03;;
32455;SDS011;18912;43.270;27.942;2024-02-15T14:31:01;6.47;;;3.00;;
32455;SDS011;18912;43.270;27.942;2024-02-15T14:33:45;8.70;;;3.10;;
32455;SDS011;18912;43.270;27.942;2024-02-15T14:36:15;12.20;;;3.70;;
32455;SDS011;18912;43.270;27.942;2024-02-15T14:38:40;8.00;;;3.10;;
32455;SDS011;18912;43.270;27.942;2024-02-15T14:41:06;9.07;;;3.23;;
32455;SDS011;18912;43.270;27.942;2024-02-15T14:43:31;11.27;;;3.40;;
32455;SDS011;18912;43.270;27.942;2024-02-15T14:45:58;13.68;;;2.90;;
32455;SDS011;18912;43.270;27.942;2024-02-15T14:48:26;6.35;;;2.80;;
32455;SDS011;18912;43.270;27.942;2024-02-15T14:50:52;5.50;;;3.33;;
32455;SDS011;18912;43.270;27.942;2024-02-15T14:53:18;6.53;;;2.73;;
32455;SDS011;18912;43.270;27.942;2024-02-15T14:55:44;7.55;;;2.90;;
32455;SDS011;18912;43.270;27.942;2024-02-15T14:58:11;7.20;;;2.80;;
32455;SDS011;18912;43.270;27.942;2024-02-15T15:03:04;6.22;;;2.88;;
32455;SDS011;18912;43.270;27.942;2024-02-15T15:05:30;8.98;;;3.28;;
32455;SDS011;18912;43.270;27.942;2024-02-15T15:08:15;6.00;;;2.80;;
32455;SDS011;18912;43.270;27.942;2024-02-15T15:10:59;6.95;;;2.55;;
32455;SDS011;18912;43.270;27.942;2024-02-15T15:13:43;7.10;;;3.03;;
32455;SDS011;18912;43.270;27.942;2024-02-15T15:16:08;5.27;;;2.57;;
32455;SDS011;18912;43.270;27.942;2024-02-15T15:18:39;5.68;;;2.65;;
32455;SDS011;18912;43.270;27.942;2024-02-15T15:21:05;10.00;;;3.13;;
32455;SDS011;18912;43.270;27.942;2024-02-15T15:23:31;7.80;;;3.10;;
32455;SDS011;18912;43.270;27.942;2024-02-15T15:25:57;11.43;;;2.92;;